sensor_id;sensor_type;location;lat;lon;timestamp;pressure;altitude;pressure_sealevel;temperature;humidity
13312;BME280;34033;48.672;9.376;2023-04-26T00:02:03;98586.19;;;11.20;66.86
13312;BME280;34033;48.672;9.376;2023-04-26T00:04:29;98598.59;;;11.26;66.68
13312;BME280;34033;48.672;9.376;2023-04-26T00:06:55;98590.63;;;11.24;65.58
13312;BME280;34033;48.672;9.376;2023-04-26T00:09:20;98584.22;;;11.24;65.79
13312;BME280;34033;48.672;9.376;2023-04-26T00:11:45;98586.22;;;11.27;66.35
13312;BME280;34033;48.672;9.376;2023-04-26T00:14:11;98597.03;;;11.32;66.47
13312;BME280;34033;48.672;9.376;2023-04-26T00:16:36;98594.69;;;11.38;66.24
13312;BME280;34033;48.672;9.376;2023-04-26T00:19:02;98597.88;;;11.36;66.22
13312;BME280;34033;48.672;9.376;2023-04-26T00:21:28;98593.44;;;11.32;66.96
13312;BME280;34033;48.672;9.376;2023-04-26T00:23:53;98591.06;;;11.30;67.20
13312;BME280;34033;48.672;9.376;2023-04-26T00:26:19;98588.97;;;11.20;67.36
13312;BME280;34033;48.672;9.376;2023-04-26T00:28:44;98586.16;;;11.13;67.12
13312;BME280;34033;48.672;9.376;2023-04-26T00:31:13;98594.56;;;11.13;66.86
13312;BME280;34033;48.672;9.376;2023-04-26T00:33:39;98591.34;;;11.11;67.50
13312;BME280;34033;48.672;9.376;2023-04-26T00:36:05;98584.16;;;11.13;67.23
13312;BME280;34033;48.672;9.376;2023-04-26T00:38:30;98595.31;;;11.10;67.24
13312;BME280;34033;48.672;9.376;2023-04-26T00:40:55;98590.94;;;11.12;67.08
13312;BME280;34033;48.672;9.376;2023-04-26T00:43:21;98588.53;;;11.11;66.98
13312;BME280;34033;48.672;9.376;2023-04-26T00:45:46;98589.28;;;11.04;66.91
13312;BME280;34033;48.672;9.376;2023-04-26T00:48:11;98584.50;;;11.08;66.81
13312;BME280;34033;48.672;9.376;2023-04-26T00:50:37;98585.72;;;11.07;67.54
13312;BME280;34033;48.672;9.376;2023-04-26T00:53:02;98585.69;;;11.04;67.23
13312;BME280;34033;48.672;9.376;2023-04-26T00:55:28;98590.00;;;10.91;67.38
13312;BME280;34033;48.672;9.376;2023-04-26T00:57:53;98593.56;;;10.84;67.75
13312;BME280;34033;48.672;9.376;2023-04-26T01:00:19;98593.03;;;10.71;68.46
13312;BME280;34033;48.672;9.376;2023-04-26T01:02:45;98593.88;;;10.75;68.94
13312;BME280;34033;48.672;9.376;2023-04-26T01:05:11;98594.28;;;10.74;68.55
13312;BME280;34033;48.672;9.376;2023-04-26T01:07:37;98601.94;;;10.80;68.68
13312;BME280;34033;48.672;9.376;2023-04-26T01:10:05;98601.13;;;10.83;68.41
13312;BME280;34033;48.672;9.376;2023-04-26T01:12:31;98598.75;;;10.85;69.27
13312;BME280;34033;48.672;9.376;2023-04-26T01:14:58;98596.38;;;10.87;68.85
13312;BME280;34033;48.672;9.376;2023-04-26T01:17:24;98606.38;;;10.88;68.79
13312;BME280;34033;48.672;9.376;2023-04-26T01:19:50;98599.97;;;10.92;68.79
13312;BME280;34033;48.672;9.376;2023-04-26T01:22:16;98603.19;;;10.94;68.82
13312;BME280;34033;48.672;9.376;2023-04-26T01:24:44;98602.84;;;10.99;68.48
13312;BME280;34033;48.672;9.376;2023-04-26T01:27:10;98601.66;;;11.00;68.60
13312;BME280;34033;48.672;9.376;2023-04-26T01:29:35;98601.22;;;10.94;67.91
13312;BME280;34033;48.672;9.376;2023-04-26T01:32:00;98589.53;;;10.81;68.29
13312;BME280;34033;48.672;9.376;2023-04-26T01:34:26;98599.88;;;10.77;68.29
13312;BME280;34033;48.672;9.376;2023-04-26T01:36:51;98591.06;;;10.75;69.12
13312;BME280;34033;48.672;9.376;2023-04-26T01:39:16;98594.72;;;10.79;68.95
13312;BME280;34033;48.672;9.376;2023-04-26T01:41:42;98603.50;;;10.81;68.22
13312;BME280;34033;48.672;9.376;2023-04-26T01:44:07;98604.34;;;10.85;68.75
13312;BME280;34033;48.672;9.376;2023-04-26T01:46:33;98601.56;;;10.89;67.77
13312;BME280;34033;48.672;9.376;2023-04-26T01:48:58;98594.34;;;10.84;67.52
13312;BME280;34033;48.672;9.376;2023-04-26T01:51:24;98591.94;;;10.79;67.79
13312;BME280;34033;48.672;9.376;2023-04-26T01:53:49;98591.88;;;10.72;67.82
13312;BME280;34033;48.672;9.376;2023-04-26T01:56:15;98591.81;;;10.65;67.73
13312;BME280;34033;48.672;9.376;2023-04-26T01:58:40;98592.59;;;10.62;68.37
13312;BME280;34033;48.672;9.376;2023-04-26T02:01:07;98592.59;;;10.66;68.25
13312;BME280;34033;48.672;9.376;2023-04-26T02:03:33;98592.59;;;10.62;68.25
13312;BME280;34033;48.672;9.376;2023-04-26T02:05:59;98596.56;;;10.61;68.42
13312;BME280;34033;48.672;9.376;2023-04-26T02:08:24;98602.94;;;10.58;68.56
13312;BME280;34033;48.672;9.376;2023-04-26T02:10:50;98606.03;;;10.46;68.57
13312;BME280;34033;48.672;9.376;2023-04-26T02:13:15;98601.16;;;10.36;69.00
13312;BME280;34033;48.672;9.376;2023-04-26T02:15:45;98599.91;;;10.33;69.48
13312;BME280;34033;48.672;9.376;2023-04-26T02:18:10;98599.91;;;10.33;69.51
13312;BME280;34033;48.672;9.376;2023-04-26T02:20:35;98605.13;;;10.35;69.05
13312;BME280;34033;48.672;9.376;2023-04-26T02:23:03;98601.97;;;10.36;69.48
13312;BME280;34033;48.672;9.376;2023-04-26T02:25:28;98599.16;;;10.36;69.23
13312;BME280;34033;48.672;9.376;2023-04-26T02:27:53;98595.56;;;10.36;69.23
13312;BME280;34033;48.672;9.376;2023-04-26T02:30:19;98603.16;;;10.39;69.25
13312;BME280;34033;48.672;9.376;2023-04-26T02:32:44;98593.16;;;10.38;69.02
13312;BME280;34033;48.672;9.376;2023-04-26T02:35:10;98601.56;;;10.38;68.68
13312;BME280;34033;48.672;9.376;2023-04-26T02:37:35;98596.31;;;10.33;68.41
13312;BME280;34033;48.672;9.376;2023-04-26T02:40:01;98597.50;;;10.32;68.24
13312;BME280;34033;48.672;9.376;2023-04-26T02:42:28;98600.28;;;10.28;67.69
13312;BME280;34033;48.672;9.376;2023-04-26T02:44:53;98604.22;;;10.24;67.91
13312;BME280;34033;48.672;9.376;2023-04-26T02:47:18;98600.19;;;10.21;67.86
13312;BME280;34033;48.672;9.376;2023-04-26T02:49:44;98593.78;;;10.21;68.17
13312;BME280;34033;48.672;9.376;2023-04-26T02:52:09;98587.72;;;10.15;67.86
13312;BME280;34033;48.672;9.376;2023-04-26T02:54:34;98592.84;;;10.10;67.89
13312;BME280;34033;48.672;9.376;2023-04-26T02:57:00;98585.59;;;10.01;68.00
13312;BME280;34033;48.672;9.376;2023-04-26T02:59:25;98592.72;;;9.95;68.32
13312;BME280;34033;48.672;9.376;2023-04-26T03:01:51;98599.00;;;9.85;68.42
13312;BME280;34033;48.672;9.376;2023-04-26T03:04:16;98591.81;;;9.84;68.41
13312;BME280;34033;48.672;9.376;2023-04-26T03:06:42;98595.03;;;9.86;68.71
13312;BME280;34033;48.672;9.376;2023-04-26T03:09:07;98599.41;;;9.87;68.71
13312;BME280;34033;48.672;9.376;2023-04-26T03:11:32;98600.31;;;9.98;69.04
13312;BME280;34033;48.672;9.376;2023-04-26T03:13:58;98606.78;;;10.02;68.96
13312;BME280;34033;48.672;9.376;2023-04-26T03:16:26;98609.16;;;10.04;68.57
13312;BME280;34033;48.672;9.376;2023-04-26T03:18:52;98614.75;;;10.04;69.06
13312;BME280;34033;48.672;9.376;2023-04-26T03:21:18;98611.16;;;10.03;68.58
13312;BME280;34033;48.672;9.376;2023-04-26T03:23:43;98605.16;;;10.01;68.06
13312;BME280;34033;48.672;9.376;2023-04-26T03:26:09;98597.97;;;10.00;67.80
13312;BME280;34033;48.672;9.376;2023-04-26T03:28:34;98609.09;;;9.97;68.79
13312;BME280;34033;48.672;9.376;2023-04-26T03:31:00;98600.31;;;9.98;68.54
13312;BME280;34033;48.672;9.376;2023-04-26T03:33:26;98609.50;;;9.99;68.74
13312;BME280;34033;48.672;9.376;2023-04-26T03:35:51;98606.72;;;9.99;68.54
13312;BME280;34033;48.672;9.376;2023-04-26T03:38:16;98609.56;;;10.02;67.60
13312;BME280;34033;48.672;9.376;2023-04-26T03:40:42;98615.16;;;10.02;67.12
13312;BME280;34033;48.672;9.376;2023-04-26T03:43:07;98610.31;;;9.99;66.53
13312;BME280;34033;48.672;9.376;2023-04-26T03:45:32;98615.50;;;9.97;66.66
13312;BME280;34033;48.672;9.376;2023-04-26T03:47:58;98607.06;;;9.94;66.73
13312;BME280;34033;48.672;9.376;2023-04-26T03:50:23;98608.22;;;9.89;66.46
13312;BME280;34033;48.672;9.376;2023-04-26T03:52:49;98609.00;;;9.86;66.72
13312;BME280;34033;48.672;9.376;2023-04-26T03:55:14;98604.16;;;9.83;67.44
13312;BME280;34033;48.672;9.376;2023-04-26T03:57:39;98602.13;;;9.80;67.17
13312;BME280;34033;48.672;9.376;2023-04-26T04:00:05;98596.47;;;9.73;67.61
13312;BME280;34033;48.672;9.376;2023-04-26T04:02:38;98600.09;;;9.77;67.31
13312;BME280;34033;48.672;9.376;2023-04-26T04:05:04;98596.13;;;9.78;67.52
13312;BME280;34033;48.672;9.376;2023-04-26T04:07:29;98605.22;;;9.72;67.51
13312;BME280;34033;48.672;9.376;2023-04-26T04:09:57;98609.25;;;9.74;67.53
13312;BME280;34033;48.672;9.376;2023-04-26T04:12:23;98609.16;;;9.67;67.75
13312;BME280;34033;48.672;9.376;2023-04-26T04:14:48;98605.91;;;9.65;67.47
13312;BME280;34033;48.672;9.376;2023-04-26T04:17:14;98602.66;;;9.59;67.69
13312;BME280;34033;48.672;9.376;2023-04-26T04:19:39;98609.81;;;9.57;67.46
13312;BME280;34033;48.672;9.376;2023-04-26T04:22:04;98603.34;;;9.49;67.74
13312;BME280;34033;48.672;9.376;2023-04-26T04:24:31;98604.84;;;9.43;68.27
13312;BME280;34033;48.672;9.376;2023-04-26T04:26:56;98623.22;;;9.44;68.13
13312;BME280;34033;48.672;9.376;2023-04-26T04:29:21;98608.50;;;9.47;68.02
13312;BME280;34033;48.672;9.376;2023-04-26T04:31:47;98610.50;;;9.47;67.01
13312;BME280;34033;48.672;9.376;2023-04-26T04:34:12;98617.63;;;9.44;67.15
13312;BME280;34033;48.672;9.376;2023-04-26T04:36:37;98612.84;;;9.45;67.48
13312;BME280;34033;48.672;9.376;2023-04-26T04:39:04;98627.25;;;9.47;67.65
13312;BME280;34033;48.672;9.376;2023-04-26T04:41:36;98618.47;;;9.48;67.75
13312;BME280;34033;48.672;9.376;2023-04-26T04:44:01;98626.13;;;9.55;68.11
13312;BME280;34033;48.672;9.376;2023-04-26T04:46:28;98626.56;;;9.57;68.19
13312;BME280;34033;48.672;9.376;2023-04-26T04:48:53;98629.03;;;9.62;68.57
13312;BME280;34033;48.672;9.376;2023-04-26T04:51:18;98625.06;;;9.63;68.21
13312;BME280;34033;48.672;9.376;2023-04-26T04:53:44;98627.06;;;9.66;68.62
13312;BME280;34033;48.672;9.376;2023-04-26T04:56:09;98632.38;;;9.75;68.64
13312;BME280;34033;48.672;9.376;2023-04-26T04:58:35;98632.38;;;9.75;69.15
13312;BME280;34033;48.672;9.376;2023-04-26T05:01:00;98631.22;;;9.79;68.78
13312;BME280;34033;48.672;9.376;2023-04-26T05:03:25;98634.03;;;9.79;68.63
13312;BME280;34033;48.672;9.376;2023-04-26T05:05:50;98643.25;;;9.83;68.09
13312;BME280;34033;48.672;9.376;2023-04-26T05:08:16;98642.03;;;9.81;67.85
13312;BME280;34033;48.672;9.376;2023-04-26T05:10:41;98652.31;;;9.77;68.78
13312;BME280;34033;48.672;9.376;2023-04-26T05:13:06;98649.16;;;9.78;68.87
13312;BME280;34033;48.672;9.376;2023-04-26T05:15:32;98646.38;;;9.78;68.56
13312;BME280;34033;48.672;9.376;2023-04-26T05:17:57;98656.78;;;9.81;68.02
13312;BME280;34033;48.672;9.376;2023-04-26T05:20:23;98652.44;;;9.84;68.47
13312;BME280;34033;48.672;9.376;2023-04-26T05:22:49;98659.66;;;9.88;68.71
13312;BME280;34033;48.672;9.376;2023-04-26T05:25:15;98659.75;;;9.95;68.94
13312;BME280;34033;48.672;9.376;2023-04-26T05:27:41;98661.81;;;10.02;68.97
13312;BME280;34033;48.672;9.376;2023-04-26T05:30:06;98651.88;;;10.04;68.66
13312;BME280;34033;48.672;9.376;2023-04-26T05:32:32;98654.31;;;10.10;68.44
13312;BME280;34033;48.672;9.376;2023-04-26T05:34:57;98663.16;;;10.15;67.62
13312;BME280;34033;48.672;9.376;2023-04-26T05:37:23;98656.28;;;10.05;67.39
13312;BME280;34033;48.672;9.376;2023-04-26T05:39:48;98662.63;;;10.02;67.21
13312;BME280;34033;48.672;9.376;2023-04-26T05:42:13;98665.03;;;10.04;66.87
13312;BME280;34033;48.672;9.376;2023-04-26T05:44:39;98661.47;;;10.07;67.29
13312;BME280;34033;48.672;9.376;2023-04-26T05:47:05;98660.31;;;10.12;66.75
13312;BME280;34033;48.672;9.376;2023-04-26T05:49:30;98665.13;;;10.15;67.44
13312;BME280;34033;48.672;9.376;2023-04-26T05:51:58;98670.00;;;10.18;67.13
13312;BME280;34033;48.672;9.376;2023-04-26T05:54:23;98668.88;;;10.26;66.71
13312;BME280;34033;48.672;9.376;2023-04-26T05:56:48;98672.94;;;10.32;66.70
13312;BME280;34033;48.672;9.376;2023-04-26T05:59:14;98669.81;;;10.37;66.79
13312;BME280;34033;48.672;9.376;2023-04-26T06:01:39;98669.03;;;10.36;66.98
13312;BME280;34033;48.672;9.376;2023-04-26T06:04:04;98675.44;;;10.40;66.86
13312;BME280;34033;48.672;9.376;2023-04-26T06:06:30;98676.25;;;10.41;66.52
13312;BME280;34033;48.672;9.376;2023-04-26T06:08:56;98682.69;;;10.45;66.57
13312;BME280;34033;48.672;9.376;2023-04-26T06:11:21;98679.41;;;10.39;66.64
13312;BME280;34033;48.672;9.376;2023-04-26T06:13:47;98684.19;;;10.39;66.81
13312;BME280;34033;48.672;9.376;2023-04-26T06:16:12;98676.31;;;10.48;66.58
13312;BME280;34033;48.672;9.376;2023-04-26T06:18:37;98680.34;;;10.54;66.04
13312;BME280;34033;48.672;9.376;2023-04-26T06:21:03;98673.94;;;10.50;66.57
13312;BME280;34033;48.672;9.376;2023-04-26T06:23:28;98680.78;;;10.56;66.46
13312;BME280;34033;48.672;9.376;2023-04-26T06:25:53;98676.47;;;10.66;66.56
13312;BME280;34033;48.672;9.376;2023-04-26T06:28:19;98687.75;;;10.73;66.43
13312;BME280;34033;48.672;9.376;2023-04-26T06:30:44;98683.03;;;10.80;66.20
13312;BME280;34033;48.672;9.376;2023-04-26T06:33:09;98685.47;;;10.85;65.41
13312;BME280;34033;48.672;9.376;2023-04-26T06:35:41;98686.31;;;10.93;65.37
13312;BME280;34033;48.672;9.376;2023-04-26T06:38:07;98695.59;;;11.04;64.95
13312;BME280;34033;48.672;9.376;2023-04-26T06:40:34;98691.25;;;11.10;65.41
13312;BME280;34033;48.672;9.376;2023-04-26T06:43:01;98688.47;;;11.14;65.21
13312;BME280;34033;48.672;9.376;2023-04-26T06:45:26;98696.91;;;11.21;64.58
13312;BME280;34033;48.672;9.376;2023-04-26T06:47:51;98696.91;;;11.21;64.27
13312;BME280;34033;48.672;9.376;2023-04-26T06:50:17;98701.34;;;11.25;64.21
13312;BME280;34033;48.672;9.376;2023-04-26T06:52:42;98703.78;;;11.30;64.07
13312;BME280;34033;48.672;9.376;2023-04-26T06:55:08;98698.19;;;11.30;62.70
13312;BME280;34033;48.672;9.376;2023-04-26T06:57:34;98704.22;;;11.33;63.14
13312;BME280;34033;48.672;9.376;2023-04-26T06:59:59;98695.88;;;11.43;63.06
13312;BME280;34033;48.672;9.376;2023-04-26T07:02:24;98697.16;;;11.56;62.34
13312;BME280;34033;48.672;9.376;2023-04-26T07:04:50;98688.41;;;11.61;61.32
13312;BME280;34033;48.672;9.376;2023-04-26T07:07:15;98694.41;;;11.63;61.76
13312;BME280;34033;48.672;9.376;2023-04-26T07:09:41;98693.19;;;11.61;62.51
13312;BME280;34033;48.672;9.376;2023-04-26T07:12:07;98689.59;;;11.64;62.31
13312;BME280;34033;48.672;9.376;2023-04-26T07:14:32;98682.00;;;11.64;62.79
13312;BME280;34033;48.672;9.376;2023-04-26T07:16:59;98686.03;;;11.70;61.49
13312;BME280;34033;48.672;9.376;2023-04-26T07:19:24;98678.09;;;11.76;61.46
13312;BME280;34033;48.672;9.376;2023-04-26T07:21:50;98679.72;;;11.81;61.94
13312;BME280;34033;48.672;9.376;2023-04-26T07:24:15;98685.78;;;11.90;60.06
13312;BME280;34033;48.672;9.376;2023-04-26T07:26:40;98675.81;;;11.96;60.96
13312;BME280;34033;48.672;9.376;2023-04-26T07:29:06;98678.22;;;12.01;59.87
13312;BME280;34033;48.672;9.376;2023-04-26T07:31:31;98677.41;;;12.00;59.71
13312;BME280;34033;48.672;9.376;2023-04-26T07:33:57;98673.44;;;12.05;58.83
13312;BME280;34033;48.672;9.376;2023-04-26T07:36:22;98674.22;;;12.05;58.64
13312;BME280;34033;48.672;9.376;2023-04-26T07:38:48;98674.22;;;12.05;58.96
13312;BME280;34033;48.672;9.376;2023-04-26T07:41:13;98669.44;;;12.13;58.78
13312;BME280;34033;48.672;9.376;2023-04-26T07:43:41;98663.91;;;12.24;56.35
13312;BME280;34033;48.672;9.376;2023-04-26T07:46:06;98664.69;;;12.28;56.29
13312;BME280;34033;48.672;9.376;2023-04-26T07:48:32;98665.09;;;12.30;55.25
13312;BME280;34033;48.672;9.376;2023-04-26T07:51:06;98662.31;;;12.33;54.75
13312;BME280;34033;48.672;9.376;2023-04-26T07:53:32;98673.56;;;12.40;54.15
13312;BME280;34033;48.672;9.376;2023-04-26T07:55:57;98667.56;;;12.45;54.45
13312;BME280;34033;48.672;9.376;2023-04-26T07:58:22;98667.53;;;12.52;53.33
13312;BME280;34033;48.672;9.376;2023-04-26T08:00:48;98660.75;;;12.53;52.91
13312;BME280;34033;48.672;9.376;2023-04-26T08:03:14;98664.31;;;12.43;51.33
13312;BME280;34033;48.672;9.376;2023-04-26T08:05:41;98670.38;;;12.60;52.29
13312;BME280;34033;48.672;9.376;2023-04-26T08:08:06;98669.13;;;12.46;49.56
13312;BME280;34033;48.672;9.376;2023-04-26T08:10:31;98669.56;;;12.66;50.54
13312;BME280;34033;48.672;9.376;2023-04-26T08:12:57;98672.78;;;12.86;49.49
13312;BME280;34033;48.672;9.376;2023-04-26T08:15:22;98657.97;;;13.00;50.16
13312;BME280;34033;48.672;9.376;2023-04-26T08:17:47;98658.38;;;12.98;48.62
13312;BME280;34033;48.672;9.376;2023-04-26T08:20:17;98671.59;;;12.87;49.39
13312;BME280;34033;48.672;9.376;2023-04-26T08:22:42;98665.19;;;12.86;48.38
13312;BME280;34033;48.672;9.376;2023-04-26T08:25:08;98662.38;;;12.83;47.98
13312;BME280;34033;48.672;9.376;2023-04-26T08:27:34;98675.19;;;12.80;47.81
13312;BME280;34033;48.672;9.376;2023-04-26T08:30:01;98665.56;;;12.74;47.49
13312;BME280;34033;48.672;9.376;2023-04-26T08:32:26;98675.59;;;12.82;47.74
13312;BME280;34033;48.672;9.376;2023-04-26T08:34:51;98668.41;;;12.99;47.09
13312;BME280;34033;48.672;9.376;2023-04-26T08:37:17;98661.97;;;13.02;47.34
13312;BME280;34033;48.672;9.376;2023-04-26T08:39:42;98659.56;;;12.97;46.66
13312;BME280;34033;48.672;9.376;2023-04-26T08:42:15;98662.38;;;13.08;47.02
13312;BME280;34033;48.672;9.376;2023-04-26T08:44:41;98660.00;;;13.13;47.27
13312;BME280;34033;48.672;9.376;2023-04-26T08:47:30;98668.78;;;13.08;45.84
13312;BME280;34033;48.672;9.376;2023-04-26T08:50:01;98660.00;;;13.27;46.18
13312;BME280;34033;48.672;9.376;2023-04-26T08:52:30;98661.16;;;13.41;46.00
13312;BME280;34033;48.672;9.376;2023-04-26T08:54:56;98659.19;;;13.20;43.30
13312;BME280;34033;48.672;9.376;2023-04-26T08:57:23;98665.19;;;13.04;43.74
13312;BME280;34033;48.672;9.376;2023-04-26T08:59:49;98670.03;;;13.28;44.00
13312;BME280;34033;48.672;9.376;2023-04-26T09:02:21;98658.75;;;13.35;45.19
13312;BME280;34033;48.672;9.376;2023-04-26T09:04:47;98671.19;;;13.49;46.14
13312;BME280;34033;48.672;9.376;2023-04-26T09:07:32;98660.72;;;13.56;46.62
13312;BME280;34033;48.672;9.376;2023-04-26T09:10:00;98661.91;;;13.69;44.89
13312;BME280;34033;48.672;9.376;2023-04-26T09:12:26;98667.91;;;13.75;43.46
13312;BME280;34033;48.672;9.376;2023-04-26T09:14:51;98662.28;;;13.68;43.07
13312;BME280;34033;48.672;9.376;2023-04-26T09:17:24;98655.47;;;13.69;43.66
13312;BME280;34033;48.672;9.376;2023-04-26T09:19:50;98662.63;;;13.84;44.97
13312;BME280;34033;48.672;9.376;2023-04-26T09:22:35;98653.75;;;14.03;45.17
13312;BME280;34033;48.672;9.376;2023-04-26T09:25:04;98655.63;;;14.28;44.49
13312;BME280;34033;48.672;9.376;2023-04-26T09:27:38;98653.09;;;14.51;44.02
13312;BME280;34033;48.672;9.376;2023-04-26T09:32:52;98647.28;;;14.79;44.68
13312;BME280;34033;48.672;9.376;2023-04-26T09:35:40;98637.50;;;14.98;43.89
13312;BME280;34033;48.672;9.376;2023-04-26T09:38:15;98641.38;;;15.15;43.75
13312;BME280;34033;48.672;9.376;2023-04-26T09:40:48;98624.38;;;15.22;42.00
13312;BME280;34033;48.672;9.376;2023-04-26T09:43:19;98623.09;;;15.30;42.13
13312;BME280;34033;48.672;9.376;2023-04-26T09:45:49;98624.84;;;15.58;43.00
13312;BME280;34033;48.672;9.376;2023-04-26T09:48:15;98625.47;;;15.76;41.47
13312;BME280;34033;48.672;9.376;2023-04-26T09:50:42;98618.88;;;15.86;41.62
13312;BME280;34033;48.672;9.376;2023-04-26T09:53:23;98623.97;;;15.98;41.51
13312;BME280;34033;48.672;9.376;2023-04-26T09:55:50;98615.78;;;16.07;41.46
13312;BME280;34033;48.672;9.376;2023-04-26T09:58:15;98604.94;;;16.06;41.42
13312;BME280;34033;48.672;9.376;2023-04-26T10:00:41;98614.84;;;16.17;41.49
13312;BME280;34033;48.672;9.376;2023-04-26T10:03:07;98619.97;;;16.26;40.92
13312;BME280;34033;48.672;9.376;2023-04-26T10:05:33;98613.09;;;16.27;40.52
13312;BME280;34033;48.672;9.376;2023-04-26T10:08:00;98616.25;;;16.33;40.47
13312;BME280;34033;48.672;9.376;2023-04-26T10:10:33;98620.97;;;16.39;39.38
13312;BME280;34033;48.672;9.376;2023-04-26T10:12:59;98616.41;;;15.92;37.86
13312;BME280;34033;48.672;9.376;2023-04-26T10:15:27;98613.28;;;15.82;39.01
13312;BME280;34033;48.672;9.376;2023-04-26T10:17:52;98612.28;;;15.25;38.34
13312;BME280;34033;48.672;9.376;2023-04-26T10:20:19;98611.56;;;15.17;38.30
13312;BME280;34033;48.672;9.376;2023-04-26T10:22:52;98604.25;;;15.27;39.05
13312;BME280;34033;48.672;9.376;2023-04-26T10:25:21;98602.00;;;15.08;38.42
13312;BME280;34033;48.672;9.376;2023-04-26T10:28:01;98597.91;;;15.16;38.12
13312;BME280;34033;48.672;9.376;2023-04-26T10:30:30;98604.31;;;15.16;38.23
13312;BME280;34033;48.672;9.376;2023-04-26T10:35:28;98607.41;;;15.32;39.15
13312;BME280;34033;48.672;9.376;2023-04-26T10:40:33;98594.38;;;15.45;38.65
13312;BME280;34033;48.672;9.376;2023-04-26T10:45:49;98596.34;;;15.49;38.11
13312;BME280;34033;48.672;9.376;2023-04-26T10:48:30;98596.50;;;15.72;38.47
13312;BME280;34033;48.672;9.376;2023-04-26T10:51:07;98582.84;;;16.01;39.34
13312;BME280;34033;48.672;9.376;2023-04-26T11:01:33;98591.22;;;16.08;37.11
13312;BME280;34033;48.672;9.376;2023-04-26T11:04:05;98590.75;;;16.13;38.05
13312;BME280;34033;48.672;9.376;2023-04-26T11:06:50;98593.28;;;16.04;39.37
13312;BME280;34033;48.672;9.376;2023-04-26T11:09:47;98588.13;;;15.99;39.00
13312;BME280;34033;48.672;9.376;2023-04-26T11:12:14;98582.38;;;15.75;39.35
13312;BME280;34033;48.672;9.376;2023-04-26T11:14:41;98587.81;;;15.59;39.47
13312;BME280;34033;48.672;9.376;2023-04-26T11:17:07;98586.50;;;15.30;38.86
13312;BME280;34033;48.672;9.376;2023-04-26T11:19:33;98584.13;;;15.25;39.08
13312;BME280;34033;48.672;9.376;2023-04-26T11:21:59;98584.59;;;15.20;39.68
13312;BME280;34033;48.672;9.376;2023-04-26T11:24:32;98568.16;;;15.52;39.29
13312;BME280;34033;48.672;9.376;2023-04-26T11:26:57;98564.34;;;15.69;38.32
13312;BME280;34033;48.672;9.376;2023-04-26T11:29:24;98551.09;;;15.97;38.63
13312;BME280;34033;48.672;9.376;2023-04-26T11:31:54;98559.28;;;15.88;38.30
13312;BME280;34033;48.672;9.376;2023-04-26T11:34:37;98547.47;;;16.23;40.02
13312;BME280;34033;48.672;9.376;2023-04-26T11:37:06;98553.75;;;16.61;39.27
13312;BME280;34033;48.672;9.376;2023-04-26T11:39:35;98540.94;;;16.80;38.19
13312;BME280;34033;48.672;9.376;2023-04-26T11:42:09;98535.84;;;16.94;37.08
13312;BME280;34033;48.672;9.376;2023-04-26T11:44:35;98528.47;;;17.00;37.50
13312;BME280;34033;48.672;9.376;2023-04-26T11:47:01;98525.34;;;16.95;36.39
13312;BME280;34033;48.672;9.376;2023-04-26T11:49:28;98526.81;;;17.03;35.00
13312;BME280;34033;48.672;9.376;2023-04-26T11:51:54;98525.97;;;16.59;35.83
13312;BME280;34033;48.672;9.376;2023-04-26T11:54:31;98528.75;;;16.86;36.94
13312;BME280;34033;48.672;9.376;2023-04-26T11:56:57;98516.50;;;16.93;36.65
13312;BME280;34033;48.672;9.376;2023-04-26T11:59:24;98524.34;;;16.58;35.90
13312;BME280;34033;48.672;9.376;2023-04-26T12:01:50;98516.28;;;16.60;36.97
13312;BME280;34033;48.672;9.376;2023-04-26T12:04:16;98516.16;;;16.67;37.22
13312;BME280;34033;48.672;9.376;2023-04-26T12:06:43;98511.59;;;16.97;36.32
13312;BME280;34033;48.672;9.376;2023-04-26T12:09:10;98510.72;;;16.53;36.19
13312;BME280;34033;48.672;9.376;2023-04-26T12:11:36;98504.59;;;16.58;36.75
13312;BME280;34033;48.672;9.376;2023-04-26T12:14:02;98504.88;;;17.10;35.55
13312;BME280;34033;48.672;9.376;2023-04-26T12:16:28;98493.44;;;17.37;34.58
13312;BME280;34033;48.672;9.376;2023-04-26T12:18:54;98504.03;;;17.53;36.29
13312;BME280;34033;48.672;9.376;2023-04-26T12:21:21;98503.19;;;17.92;35.57
13312;BME280;34033;48.672;9.376;2023-04-26T12:23:46;98497.69;;;18.21;34.70
13312;BME280;34033;48.672;9.376;2023-04-26T12:26:13;98502.53;;;18.04;34.65
13312;BME280;34033;48.672;9.376;2023-04-26T12:28:39;98495.38;;;18.16;35.06
13312;BME280;34033;48.672;9.376;2023-04-26T12:31:05;98492.22;;;18.30;34.74
13312;BME280;34033;48.672;9.376;2023-04-26T12:33:31;98504.00;;;17.92;33.51
13312;BME280;34033;48.672;9.376;2023-04-26T12:36:04;98508.47;;;18.10;34.15
13312;BME280;34033;48.672;9.376;2023-04-26T12:38:30;98497.81;;;18.33;35.21
13312;BME280;34033;48.672;9.376;2023-04-26T12:40:56;98501.97;;;18.29;34.76
13312;BME280;34033;48.672;9.376;2023-04-26T12:43:21;98490.47;;;18.52;34.90
13312;BME280;34033;48.672;9.376;2023-04-26T12:45:50;98485.16;;;18.70;33.49
13312;BME280;34033;48.672;9.376;2023-04-26T12:48:15;98487.13;;;18.57;34.43
13312;BME280;34033;48.672;9.376;2023-04-26T12:50:40;98485.88;;;18.74;34.10
13312;BME280;34033;48.672;9.376;2023-04-26T12:53:06;98479.38;;;18.42;34.33
13312;BME280;34033;48.672;9.376;2023-04-26T12:55:31;98482.16;;;18.29;32.82
13312;BME280;34033;48.672;9.376;2023-04-26T12:57:57;98485.94;;;18.39;33.82
13312;BME280;34033;48.672;9.376;2023-04-26T13:00:23;98485.53;;;18.56;33.46
13312;BME280;34033;48.672;9.376;2023-04-26T13:02:48;98477.56;;;18.67;34.20
13312;BME280;34033;48.672;9.376;2023-04-26T13:05:14;98473.81;;;18.06;33.81
13312;BME280;34033;48.672;9.376;2023-04-26T13:07:41;98479.91;;;18.04;34.58
13312;BME280;34033;48.672;9.376;2023-04-26T13:10:07;98473.50;;;18.68;49.43
13312;BME280;34033;48.672;9.376;2023-04-26T13:12:34;98482.47;;;19.25;44.71
13312;BME280;34033;48.672;9.376;2023-04-26T13:15:00;98470.97;;;19.73;41.09
13312;BME280;34033;48.672;9.376;2023-04-26T13:17:25;98479.41;;;20.15;39.97
13312;BME280;34033;48.672;9.376;2023-04-26T13:19:51;98479.41;;;20.15;36.59